sensor_id;sensor_type;location;lat;lon;timestamp;temperature;humidity
17333;DHT22;8784;50.94667800;7.08448400;2023-12-04T00:02:54;1.30;99.90
17333;DHT22;8784;50.94667800;7.08448400;2023-12-04T00:05:20;1.40;99.90
17333;DHT22;8784;50.94667800;7.08448400;2023-12-04T00:07:47;1.40;99.90
17333;DHT22;8784;50.94667800;7.08448400;2023-12-04T00:10:15;1.30;99.90
17333;DHT22;8784;50.94667800;7.08448400;2023-12-04T00:12:42;1.40;99.90
17333;DHT22;8784;50.94667800;7.08448400;2023-12-04T00:15:10;1.40;99.90
17333;DHT22;8784;50.94667800;7.08448400;2023-12-04T00:17:37;1.40;99.90
17333;DHT22;8784;50.94667800;7.08448400;2023-12-04T00:20:06;1.40;99.90
17333;DHT22;8784;50.94667800;7.08448400;2023-12-04T00:22:33;1.40;99.90
17333;DHT22;8784;50.94667800;7.08448400;2023-12-04T00:25:00;1.40;99.90
17333;DHT22;8784;50.94667800;7.08448400;2023-12-04T00:27:30;1.40;99.90
17333;DHT22;8784;50.94667800;7.08448400;2023-12-04T00:29:57;1.70;99.90
17333;DHT22;8784;50.94667800;7.08448400;2023-12-04T00:32:24;1.40;99.90
17333;DHT22;8784;50.94667800;7.08448400;2023-12-04T00:34:51;1.40;99.90
17333;DHT22;8784;50.94667800;7.08448400;2023-12-04T00:37:18;1.40;99.90
17333;DHT22;8784;50.94667800;7.08448400;2023-12-04T00:39:44;1.30;99.90
17333;DHT22;8784;50.94667800;7.08448400;2023-12-04T00:42:11;1.50;99.90
17333;DHT22;8784;50.94667800;7.08448400;2023-12-04T00:44:40;1.40;99.90
17333;DHT22;8784;50.94667800;7.08448400;2023-12-04T00:47:06;1.40;99.90
17333;DHT22;8784;50.94667800;7.08448400;2023-12-04T00:49:33;1.40;99.90
17333;DHT22;8784;50.94667800;7.08448400;2023-12-04T00:52:00;1.40;99.90
17333;DHT22;8784;50.94667800;7.08448400;2023-12-04T00:54:27;1.40;99.90
17333;DHT22;8784;50.94667800;7.08448400;2023-12-04T00:56:54;1.40;99.90
17333;DHT22;8784;50.94667800;7.08448400;2023-12-04T00:59:21;1.40;99.90
17333;DHT22;8784;50.94667800;7.08448400;2023-12-04T01:01:49;1.40;99.90
17333;DHT22;8784;50.94667800;7.08448400;2023-12-04T01:04:16;1.40;99.90
17333;DHT22;8784;50.94667800;7.08448400;2023-12-04T01:06:43;1.40;99.90
17333;DHT22;8784;50.94667800;7.08448400;2023-12-04T01:09:09;1.40;99.90
17333;DHT22;8784;50.94667800;7.08448400;2023-12-04T01:11:36;1.40;99.90
17333;DHT22;8784;50.94667800;7.08448400;2023-12-04T01:14:03;1.40;99.90
17333;DHT22;8784;50.94667800;7.08448400;2023-12-04T01:16:30;1.40;99.90
17333;DHT22;8784;50.94667800;7.08448400;2023-12-04T01:18:58;1.30;99.90
17333;DHT22;8784;50.94667800;7.08448400;2023-12-04T01:21:25;1.30;99.90
17333;DHT22;8784;50.94667800;7.08448400;2023-12-04T01:23:52;1.40;99.90
17333;DHT22;8784;50.94667800;7.08448400;2023-12-04T01:26:19;1.20;99.90
17333;DHT22;8784;50.94667800;7.08448400;2023-12-04T01:28:46;1.30;99.90
17333;DHT22;8784;50.94667800;7.08448400;2023-12-04T01:31:13;1.30;99.90
17333;DHT22;8784;50.94667800;7.08448400;2023-12-04T01:33:40;1.30;99.90
17333;DHT22;8784;50.94667800;7.08448400;2023-12-04T01:36:09;1.30;99.90
17333;DHT22;8784;50.94667800;7.08448400;2023-12-04T01:38:37;1.30;99.90
17333;DHT22;8784;50.94667800;7.08448400;2023-12-04T01:41:05;1.30;99.90
17333;DHT22;8784;50.94667800;7.08448400;2023-12-04T01:43:32;1.30;99.90
17333;DHT22;8784;50.94667800;7.08448400;2023-12-04T01:46:01;1.40;99.90
17333;DHT22;8784;50.94667800;7.08448400;2023-12-04T01:48:28;1.40;99.90
17333;DHT22;8784;50.94667800;7.08448400;2023-12-04T01:50:58;1.40;99.90
17333;DHT22;8784;50.94667800;7.08448400;2023-12-04T01:53:26;1.40;99.90
17333;DHT22;8784;50.94667800;7.08448400;2023-12-04T01:55:53;1.40;99.90
17333;DHT22;8784;50.94667800;7.08448400;2023-12-04T01:58:21;1.40;99.90
17333;DHT22;8784;50.94667800;7.08448400;2023-12-04T02:00:48;1.50;99.90
17333;DHT22;8784;50.94667800;7.08448400;2023-12-04T02:03:15;1.40;99.90
17333;DHT22;8784;50.94667800;7.08448400;2023-12-04T02:05:44;1.40;99.90
17333;DHT22;8784;50.94667800;7.08448400;2023-12-04T02:08:11;1.40;99.90
17333;DHT22;8784;50.94667800;7.08448400;2023-12-04T02:10:39;1.40;99.90
17333;DHT22;8784;50.94667800;7.08448400;2023-12-04T02:13:06;1.30;99.90
17333;DHT22;8784;50.94667800;7.08448400;2023-12-04T02:15:33;1.30;99.90
17333;DHT22;8784;50.94667800;7.08448400;2023-12-04T02:18:01;1.20;99.90
17333;DHT22;8784;50.94667800;7.08448400;2023-12-04T02:20:31;1.20;99.90
17333;DHT22;8784;50.94667800;7.08448400;2023-12-04T02:23:00;1.20;99.90
17333;DHT22;8784;50.94667800;7.08448400;2023-12-04T02:25:29;1.20;99.90
17333;DHT22;8784;50.94667800;7.08448400;2023-12-04T02:27:58;1.60;99.90
17333;DHT22;8784;50.94667800;7.08448400;2023-12-04T02:30:28;1.30;99.90
17333;DHT22;8784;50.94667800;7.08448400;2023-12-04T02:32:58;1.30;99.90
17333;DHT22;8784;50.94667800;7.08448400;2023-12-04T02:35:29;1.20;99.90
17333;DHT22;8784;50.94667800;7.08448400;2023-12-04T02:37:58;1.30;99.90
17333;DHT22;8784;50.94667800;7.08448400;2023-12-04T02:40:27;1.30;99.90
17333;DHT22;8784;50.94667800;7.08448400;2023-12-04T02:42:55;1.30;99.90
17333;DHT22;8784;50.94667800;7.08448400;2023-12-04T02:45:22;1.30;99.90
17333;DHT22;8784;50.94667800;7.08448400;2023-12-04T02:47:49;1.30;99.90
17333;DHT22;8784;50.94667800;7.08448400;2023-12-04T02:50:16;1.30;99.90
17333;DHT22;8784;50.94667800;7.08448400;2023-12-04T02:52:42;1.30;99.90
17333;DHT22;8784;50.94667800;7.08448400;2023-12-04T02:55:09;1.30;99.90
17333;DHT22;8784;50.94667800;7.08448400;2023-12-04T02:57:36;1.20;99.90
17333;DHT22;8784;50.94667800;7.08448400;2023-12-04T03:00:06;1.30;99.90
17333;DHT22;8784;50.94667800;7.08448400;2023-12-04T03:02:33;1.30;99.90
17333;DHT22;8784;50.94667800;7.08448400;2023-12-04T03:05:00;1.30;99.90
17333;DHT22;8784;50.94667800;7.08448400;2023-12-04T03:07:26;1.30;99.90
17333;DHT22;8784;50.94667800;7.08448400;2023-12-04T03:09:54;1.40;99.90
17333;DHT22;8784;50.94667800;7.08448400;2023-12-04T03:12:20;1.30;99.90
17333;DHT22;8784;50.94667800;7.08448400;2023-12-04T03:14:47;1.40;99.90
17333;DHT22;8784;50.94667800;7.08448400;2023-12-04T03:17:15;1.30;99.90
17333;DHT22;8784;50.94667800;7.08448400;2023-12-04T03:19:42;1.40;99.90
17333;DHT22;8784;50.94667800;7.08448400;2023-12-04T03:22:12;1.40;99.90
17333;DHT22;8784;50.94667800;7.08448400;2023-12-04T03:24:39;1.40;99.90
17333;DHT22;8784;50.94667800;7.08448400;2023-12-04T03:27:06;1.40;99.90
17333;DHT22;8784;50.94667800;7.08448400;2023-12-04T03:29:33;1.30;99.90
17333;DHT22;8784;50.94667800;7.08448400;2023-12-04T03:31:59;1.40;99.90
17333;DHT22;8784;50.94667800;7.08448400;2023-12-04T03:34:28;1.30;99.90
17333;DHT22;8784;50.94667800;7.08448400;2023-12-04T03:36:55;1.30;99.90
17333;DHT22;8784;50.94667800;7.08448400;2023-12-04T03:39:21;1.40;99.90
17333;DHT22;8784;50.94667800;7.08448400;2023-12-04T03:41:48;1.40;99.90
17333;DHT22;8784;50.94667800;7.08448400;2023-12-04T03:44:15;1.40;99.90
17333;DHT22;8784;50.94667800;7.08448400;2023-12-04T03:46:42;1.40;99.90
17333;DHT22;8784;50.94667800;7.08448400;2023-12-04T03:49:09;1.40;99.90
17333;DHT22;8784;50.94667800;7.08448400;2023-12-04T03:51:37;2.30;99.90
17333;DHT22;8784;50.94667800;7.08448400;2023-12-04T03:54:04;1.40;99.90
17333;DHT22;8784;50.94667800;7.08448400;2023-12-04T03:56:31;1.40;99.90
17333;DHT22;8784;50.94667800;7.08448400;2023-12-04T03:58:58;1.40;99.90
17333;DHT22;8784;50.94667800;7.08448400;2023-12-04T04:01:24;1.40;99.90
17333;DHT22;8784;50.94667800;7.08448400;2023-12-04T04:03:51;1.40;99.90
17333;DHT22;8784;50.94667800;7.08448400;2023-12-04T04:06:18;1.50;99.90
17333;DHT22;8784;50.94667800;7.08448400;2023-12-04T04:08:46;1.40;99.90
17333;DHT22;8784;50.94667800;7.08448400;2023-12-04T04:11:13;1.40;99.90
17333;DHT22;8784;50.94667800;7.08448400;2023-12-04T04:13:40;1.40;99.90
17333;DHT22;8784;50.94667800;7.08448400;2023-12-04T04:16:08;1.40;99.90
17333;DHT22;8784;50.94667800;7.08448400;2023-12-04T04:18:39;1.40;99.90
17333;DHT22;8784;50.94667800;7.08448400;2023-12-04T04:21:06;1.40;99.90
17333;DHT22;8784;50.94667800;7.08448400;2023-12-04T04:23:33;1.40;99.90
17333;DHT22;8784;50.94667800;7.08448400;2023-12-04T04:26:01;1.40;99.90
17333;DHT22;8784;50.94667800;7.08448400;2023-12-04T04:28:28;1.30;99.90
17333;DHT22;8784;50.94667800;7.08448400;2023-12-04T04:30:55;1.30;99.90
17333;DHT22;8784;50.94667800;7.08448400;2023-12-04T04:33:21;1.30;99.90
17333;DHT22;8784;50.94667800;7.08448400;2023-12-04T04:35:48;1.20;99.90
17333;DHT22;8784;50.94667800;7.08448400;2023-12-04T04:38:15;1.20;99.90
17333;DHT22;8784;50.94667800;7.08448400;2023-12-04T04:40:42;1.10;99.90
17333;DHT22;8784;50.94667800;7.08448400;2023-12-04T04:43:11;1.20;99.90
17333;DHT22;8784;50.94667800;7.08448400;2023-12-04T04:45:38;1.20;99.90
17333;DHT22;8784;50.94667800;7.08448400;2023-12-04T04:48:05;1.20;99.90
17333;DHT22;8784;50.94667800;7.08448400;2023-12-04T04:50:32;1.20;99.90
17333;DHT22;8784;50.94667800;7.08448400;2023-12-04T04:52:59;1.30;99.90
17333;DHT22;8784;50.94667800;7.08448400;2023-12-04T04:55:26;1.20;99.90
17333;DHT22;8784;50.94667800;7.08448400;2023-12-04T04:57:53;1.20;99.90
17333;DHT22;8784;50.94667800;7.08448400;2023-12-04T05:00:21;1.20;99.90
17333;DHT22;8784;50.94667800;7.08448400;2023-12-04T05:02:48;1.20;99.90
17333;DHT22;8784;50.94667800;7.08448400;2023-12-04T05:05:15;1.20;99.90
17333;DHT22;8784;50.94667800;7.08448400;2023-12-04T05:07:42;1.20;99.90
17333;DHT22;8784;50.94667800;7.08448400;2023-12-04T05:10:09;1.20;99.90
17333;DHT22;8784;50.94667800;7.08448400;2023-12-04T05:12:36;1.20;99.90
17333;DHT22;8784;50.94667800;7.08448400;2023-12-04T05:15:03;1.30;99.90
17333;DHT22;8784;50.94667800;7.08448400;2023-12-04T05:17:31;1.30;99.90
17333;DHT22;8784;50.94667800;7.08448400;2023-12-04T05:19:58;1.40;99.90
17333;DHT22;8784;50.94667800;7.08448400;2023-12-04T05:22:25;1.30;99.90
17333;DHT22;8784;50.94667800;7.08448400;2023-12-04T05:24:52;1.20;99.90
17333;DHT22;8784;50.94667800;7.08448400;2023-12-04T05:27:19;1.20;99.90
17333;DHT22;8784;50.94667800;7.08448400;2023-12-04T05:29:46;1.10;99.90
17333;DHT22;8784;50.94667800;7.08448400;2023-12-04T05:32:13;1.10;99.90
17333;DHT22;8784;50.94667800;7.08448400;2023-12-04T05:34:41;1.10;99.90
17333;DHT22;8784;50.94667800;7.08448400;2023-12-04T05:37:08;1.10;99.90
17333;DHT22;8784;50.94667800;7.08448400;2023-12-04T05:39:35;1.10;99.90
17333;DHT22;8784;50.94667800;7.08448400;2023-12-04T05:42:02;1.10;99.90
17333;DHT22;8784;50.94667800;7.08448400;2023-12-04T05:44:30;1.10;99.90
17333;DHT22;8784;50.94667800;7.08448400;2023-12-04T05:46:57;1.10;99.90
17333;DHT22;8784;50.94667800;7.08448400;2023-12-04T05:49:24;1.10;99.90
17333;DHT22;8784;50.94667800;7.08448400;2023-12-04T05:51:52;1.50;99.90
17333;DHT22;8784;50.94667800;7.08448400;2023-12-04T05:54:19;1.10;99.90
17333;DHT22;8784;50.94667800;7.08448400;2023-12-04T05:56:46;1.10;99.90
17333;DHT22;8784;50.94667800;7.08448400;2023-12-04T05:59:13;1.10;99.90
17333;DHT22;8784;50.94667800;7.08448400;2023-12-04T06:01:40;1.00;99.90
17333;DHT22;8784;50.94667800;7.08448400;2023-12-04T06:04:07;1.10;99.90
17333;DHT22;8784;50.94667800;7.08448400;2023-12-04T06:06:33;1.00;99.90
17333;DHT22;8784;50.94667800;7.08448400;2023-12-04T06:09:02;1.00;99.90
17333;DHT22;8784;50.94667800;7.08448400;2023-12-04T06:11:37;1.00;99.90
17333;DHT22;8784;50.94667800;7.08448400;2023-12-04T06:14:04;1.00;99.90
17333;DHT22;8784;50.94667800;7.08448400;2023-12-04T06:16:31;1.00;99.90
17333;DHT22;8784;50.94667800;7.08448400;2023-12-04T06:18:58;1.00;99.90
17333;DHT22;8784;50.94667800;7.08448400;2023-12-04T06:21:25;1.00;99.90
17333;DHT22;8784;50.94667800;7.08448400;2023-12-04T06:23:52;1.00;99.90
17333;DHT22;8784;50.94667800;7.08448400;2023-12-04T06:26:21;0.90;99.90
17333;DHT22;8784;50.94667800;7.08448400;2023-12-04T06:28:48;0.90;99.90
17333;DHT22;8784;50.94667800;7.08448400;2023-12-04T06:31:16;0.90;99.90
17333;DHT22;8784;50.94667800;7.08448400;2023-12-04T06:33:44;0.90;99.90
17333;DHT22;8784;50.94667800;7.08448400;2023-12-04T06:36:12;1.00;99.90
17333;DHT22;8784;50.94667800;7.08448400;2023-12-04T06:38:43;1.00;99.90
17333;DHT22;8784;50.94667800;7.08448400;2023-12-04T06:41:13;0.90;99.90
17333;DHT22;8784;50.94667800;7.08448400;2023-12-04T06:43:42;1.00;99.90
17333;DHT22;8784;50.94667800;7.08448400;2023-12-04T06:46:10;1.00;99.90
17333;DHT22;8784;50.94667800;7.08448400;2023-12-04T06:48:38;1.20;99.90
17333;DHT22;8784;50.94667800;7.08448400;2023-12-04T06:51:06;1.10;99.90
17333;DHT22;8784;50.94667800;7.08448400;2023-12-04T06:53:33;1.00;99.90
17333;DHT22;8784;50.94667800;7.08448400;2023-12-04T06:56:00;1.00;99.90
17333;DHT22;8784;50.94667800;7.08448400;2023-12-04T06:58:27;1.00;99.90
17333;DHT22;8784;50.94667800;7.08448400;2023-12-04T07:00:55;1.20;99.90
17333;DHT22;8784;50.94667800;7.08448400;2023-12-04T07:03:22;1.00;99.90
17333;DHT22;8784;50.94667800;7.08448400;2023-12-04T07:05:50;1.00;99.90
17333;DHT22;8784;50.94667800;7.08448400;2023-12-04T07:08:17;1.00;99.90
17333;DHT22;8784;50.94667800;7.08448400;2023-12-04T07:10:43;1.10;99.90
17333;DHT22;8784;50.94667800;7.08448400;2023-12-04T07:13:10;1.10;99.90
17333;DHT22;8784;50.94667800;7.08448400;2023-12-04T07:15:38;1.10;99.90
17333;DHT22;8784;50.94667800;7.08448400;2023-12-04T07:18:06;1.10;99.90
17333;DHT22;8784;50.94667800;7.08448400;2023-12-04T07:20:33;1.20;99.90
17333;DHT22;8784;50.94667800;7.08448400;2023-12-04T07:23:01;1.30;99.90
17333;DHT22;8784;50.94667800;7.08448400;2023-12-04T07:25:28;1.30;99.90
17333;DHT22;8784;50.94667800;7.08448400;2023-12-04T07:27:55;1.30;99.90
17333;DHT22;8784;50.94667800;7.08448400;2023-12-04T07:30:23;1.30;99.90
17333;DHT22;8784;50.94667800;7.08448400;2023-12-04T07:32:50;1.40;99.90
17333;DHT22;8784;50.94667800;7.08448400;2023-12-04T07:35:19;1.30;99.90
17333;DHT22;8784;50.94667800;7.08448400;2023-12-04T07:37:46;1.40;99.90
17333;DHT22;8784;50.94667800;7.08448400;2023-12-04T07:40:14;1.40;99.90
17333;DHT22;8784;50.94667800;7.08448400;2023-12-04T07:42:41;1.40;99.90
17333;DHT22;8784;50.94667800;7.08448400;2023-12-04T07:45:09;1.40;99.90
17333;DHT22;8784;50.94667800;7.08448400;2023-12-04T07:47:36;1.50;99.90
17333;DHT22;8784;50.94667800;7.08448400;2023-12-04T07:50:03;1.50;99.90
17333;DHT22;8784;50.94667800;7.08448400;2023-12-04T07:52:32;1.50;99.90
17333;DHT22;8784;50.94667800;7.08448400;2023-12-04T07:54:59;1.40;99.90
17333;DHT22;8784;50.94667800;7.08448400;2023-12-04T07:57:25;1.50;99.90
17333;DHT22;8784;50.94667800;7.08448400;2023-12-04T07:59:52;1.50;99.90
17333;DHT22;8784;50.94667800;7.08448400;2023-12-04T08:02:19;1.50;99.90
17333;DHT22;8784;50.94667800;7.08448400;2023-12-04T08:04:46;1.60;99.90
17333;DHT22;8784;50.94667800;7.08448400;2023-12-04T08:07:13;1.70;99.90
17333;DHT22;8784;50.94667800;7.08448400;2023-12-04T08:09:42;1.60;99.90
17333;DHT22;8784;50.94667800;7.08448400;2023-12-04T08:12:09;1.60;99.90
17333;DHT22;8784;50.94667800;7.08448400;2023-12-04T08:14:36;1.50;99.90
17333;DHT22;8784;50.94667800;7.08448400;2023-12-04T08:17:03;1.50;99.90
17333;DHT22;8784;50.94667800;7.08448400;2023-12-04T08:19:31;1.50;99.90
17333;DHT22;8784;50.94667800;7.08448400;2023-12-04T08:21:58;1.50;99.90
17333;DHT22;8784;50.94667800;7.08448400;2023-12-04T08:24:25;1.50;99.90
17333;DHT22;8784;50.94667800;7.08448400;2023-12-04T08:26:53;1.40;99.90
17333;DHT22;8784;50.94667800;7.08448400;2023-12-04T08:29:20;1.50;99.90
17333;DHT22;8784;50.94667800;7.08448400;2023-12-04T08:31:47;1.40;99.90
17333;DHT22;8784;50.94667800;7.08448400;2023-12-04T08:34:14;1.40;99.90
17333;DHT22;8784;50.94667800;7.08448400;2023-12-04T08:36:42;1.40;99.90
17333;DHT22;8784;50.94667800;7.08448400;2023-12-04T08:39:08;1.40;99.90
17333;DHT22;8784;50.94667800;7.08448400;2023-12-04T08:41:35;1.40;99.90
17333;DHT22;8784;50.94667800;7.08448400;2023-12-04T08:44:04;1.50;99.90
17333;DHT22;8784;50.94667800;7.08448400;2023-12-04T08:46:31;1.50;99.90
17333;DHT22;8784;50.94667800;7.08448400;2023-12-04T08:48:58;1.50;99.90
17333;DHT22;8784;50.94667800;7.08448400;2023-12-04T08:51:24;1.50;99.90
17333;DHT22;8784;50.94667800;7.08448400;2023-12-04T08:53:51;1.50;99.90
17333;DHT22;8784;50.94667800;7.08448400;2023-12-04T08:56:18;1.50;99.90
17333;DHT22;8784;50.94667800;7.08448400;2023-12-04T08:58:45;1.60;99.90
17333;DHT22;8784;50.94667800;7.08448400;2023-12-04T09:01:13;1.50;99.90
17333;DHT22;8784;50.94667800;7.08448400;2023-12-04T09:03:40;2.20;99.90
17333;DHT22;8784;50.94667800;7.08448400;2023-12-04T09:06:08;1.60;99.90
17333;DHT22;8784;50.94667800;7.08448400;2023-12-04T09:08:35;1.60;99.90
17333;DHT22;8784;50.94667800;7.08448400;2023-12-04T09:11:02;1.60;99.90
17333;DHT22;8784;50.94667800;7.08448400;2023-12-04T09:13:30;1.70;99.90
17333;DHT22;8784;50.94667800;7.08448400;2023-12-04T09:15:58;1.70;99.90
17333;DHT22;8784;50.94667800;7.08448400;2023-12-04T09:18:26;1.70;99.90
17333;DHT22;8784;50.94667800;7.08448400;2023-12-04T09:20:53;1.70;99.90
17333;DHT22;8784;50.94667800;7.08448400;2023-12-04T09:23:20;1.70;99.90
17333;DHT22;8784;50.94667800;7.08448400;2023-12-04T09:25:47;1.80;99.90
17333;DHT22;8784;50.94667800;7.08448400;2023-12-04T09:28:14;1.80;99.90
17333;DHT22;8784;50.94667800;7.08448400;2023-12-04T09:30:41;1.80;99.90
17333;DHT22;8784;50.94667800;7.08448400;2023-12-04T09:33:08;1.90;99.90
17333;DHT22;8784;50.94667800;7.08448400;2023-12-04T09:35:37;1.90;99.90
17333;DHT22;8784;50.94667800;7.08448400;2023-12-04T09:38:04;1.80;99.90
17333;DHT22;8784;50.94667800;7.08448400;2023-12-04T09:40:31;1.80;99.90
17333;DHT22;8784;50.94667800;7.08448400;2023-12-04T09:42:58;1.80;99.90
17333;DHT22;8784;50.94667800;7.08448400;2023-12-04T09:45:25;1.80;99.90
17333;DHT22;8784;50.94667800;7.08448400;2023-12-04T09:47:53;1.90;99.90
17333;DHT22;8784;50.94667800;7.08448400;2023-12-04T09:50:21;1.90;99.90
17333;DHT22;8784;50.94667800;7.08448400;2023-12-04T09:52:50;1.90;99.90
17333;DHT22;8784;50.94667800;7.08448400;2023-12-04T09:55:18;1.90;99.90
17333;DHT22;8784;50.94667800;7.08448400;2023-12-04T09:57:46;1.90;99.90
17333;DHT22;8784;50.94667800;7.08448400;2023-12-04T10:00:15;1.90;99.90
17333;DHT22;8784;50.94667800;7.08448400;2023-12-04T10:02:42;2.00;99.90
17333;DHT22;8784;50.94667800;7.08448400;2023-12-04T10:05:09;1.90;99.90
17333;DHT22;8784;50.94667800;7.08448400;2023-12-04T10:07:36;2.10;99.90
17333;DHT22;8784;50.94667800;7.08448400;2023-12-04T10:10:05;2.00;99.90
17333;DHT22;8784;50.94667800;7.08448400;2023-12-04T10:12:33;2.10;99.90
17333;DHT22;8784;50.94667800;7.08448400;2023-12-04T10:15:07;2.10;99.90
17333;DHT22;8784;50.94667800;7.08448400;2023-12-04T10:17:34;2.20;99.90
17333;DHT22;8784;50.94667800;7.08448400;2023-12-04T10:20:08;2.20;99.90
17333;DHT22;8784;50.94667800;7.08448400;2023-12-04T10:22:39;2.20;99.90
17333;DHT22;8784;50.94667800;7.08448400;2023-12-04T10:25:17;2.20;99.90
17333;DHT22;8784;50.94667800;7.08448400;2023-12-04T10:27:44;2.20;99.90
17333;DHT22;8784;50.94667800;7.08448400;2023-12-04T10:30:25;2.20;99.90
17333;DHT22;8784;50.94667800;7.08448400;2023-12-04T10:32:57;2.20;99.90
17333;DHT22;8784;50.94667800;7.08448400;2023-12-04T10:35:27;2.10;99.90
17333;DHT22;8784;50.94667800;7.08448400;2023-12-04T10:37:56;2.10;99.90
17333;DHT22;8784;50.94667800;7.08448400;2023-12-04T10:40:25;2.10;99.90
17333;DHT22;8784;50.94667800;7.08448400;2023-12-04T10:43:10;2.10;99.90
17333;DHT22;8784;50.94667800;7.08448400;2023-12-04T10:45:38;2.10;99.90
17333;DHT22;8784;50.94667800;7.08448400;2023-12-04T10:48:06;2.10;99.90
17333;DHT22;8784;50.94667800;7.08448400;2023-12-04T10:50:34;2.10;99.90
17333;DHT22;8784;50.94667800;7.08448400;2023-12-04T10:53:03;2.10;99.90
17333;DHT22;8784;50.94667800;7.08448400;2023-12-04T10:55:32;2.00;99.90
17333;DHT22;8784;50.94667800;7.08448400;2023-12-04T10:58:00;2.00;99.90
17333;DHT22;8784;50.94667800;7.08448400;2023-12-04T11:00:30;2.10;99.90
17333;DHT22;8784;50.94667800;7.08448400;2023-12-04T11:03:08;2.10;99.90
17333;DHT22;8784;50.94667800;7.08448400;2023-12-04T11:05:38;2.10;99.90
17333;DHT22;8784;50.94667800;7.08448400;2023-12-04T11:08:06;2.10;99.90
17333;DHT22;8784;50.94667800;7.08448400;2023-12-04T11:10:44;2.10;99.90
17333;DHT22;8784;50.94667800;7.08448400;2023-12-04T11:13:16;2.10;99.90
17333;DHT22;8784;50.94667800;7.08448400;2023-12-04T11:15:47;2.10;99.90
17333;DHT22;8784;50.94667800;7.08448400;2023-12-04T11:18:16;2.00;99.90
17333;DHT22;8784;50.94667800;7.08448400;2023-12-04T11:20:51;2.10;99.90
17333;DHT22;8784;50.94667800;7.08448400;2023-12-04T11:23:22;2.10;99.90
17333;DHT22;8784;50.94667800;7.08448400;2023-12-04T11:25:51;2.10;99.90
17333;DHT22;8784;50.94667800;7.08448400;2023-12-04T11:28:19;2.10;99.90
17333;DHT22;8784;50.94667800;7.08448400;2023-12-04T11:30:46;2.10;99.90
17333;DHT22;8784;50.94667800;7.08448400;2023-12-04T11:33:15;2.00;99.90
17333;DHT22;8784;50.94667800;7.08448400;2023-12-04T11:35:42;2.00;99.90
17333;DHT22;8784;50.94667800;7.08448400;2023-12-04T11:38:13;2.00;99.90
17333;DHT22;8784;50.94667800;7.08448400;2023-12-04T11:40:41;2.00;99.90
17333;DHT22;8784;50.94667800;7.08448400;2023-12-04T11:43:26;1.90;99.90
17333;DHT22;8784;50.94667800;7.08448400;2023-12-04T11:46:07;1.90;99.90
17333;DHT22;8784;50.94667800;7.08448400;2023-12-04T11:48:36;2.00;99.90
17333;DHT22;8784;50.94667800;7.08448400;2023-12-04T11:51:05;2.00;99.90
17333;DHT22;8784;50.94667800;7.08448400;2023-12-04T11:53:32;2.00;99.90
17333;DHT22;8784;50.94667800;7.08448400;2023-12-04T11:56:09;1.90;99.90
17333;DHT22;8784;50.94667800;7.08448400;2023-12-04T11:58:43;1.80;99.90
17333;DHT22;8784;50.94667800;7.08448400;2023-12-04T12:01:10;1.80;99.90
17333;DHT22;8784;50.94667800;7.08448400;2023-12-04T12:03:38;1.70;99.90
17333;DHT22;8784;50.94667800;7.08448400;2023-12-04T12:06:06;1.70;99.90
17333;DHT22;8784;50.94667800;7.08448400;2023-12-04T12:08:33;1.70;99.90
17333;DHT22;8784;50.94667800;7.08448400;2023-12-04T12:11:00;1.70;99.90
17333;DHT22;8784;50.94667800;7.08448400;2023-12-04T12:13:28;1.70;99.90
17333;DHT22;8784;50.94667800;7.08448400;2023-12-04T12:15:56;1.70;99.90
17333;DHT22;8784;50.94667800;7.08448400;2023-12-04T12:18:24;1.80;99.90
17333;DHT22;8784;50.94667800;7.08448400;2023-12-04T12:20:51;1.60;99.90
17333;DHT22;8784;50.94667800;7.08448400;2023-12-04T12:23:18;1.70;99.90
17333;DHT22;8784;50.94667800;7.08448400;2023-12-04T12:25:45;1.70;99.90
17333;DHT22;8784;50.94667800;7.08448400;2023-12-04T12:28:13;1.70;99.90
17333;DHT22;8784;50.94667800;7.08448400;2023-12-04T12:30:40;1.70;99.90
17333;DHT22;8784;50.94667800;7.08448400;2023-12-04T12:33:09;1.70;99.90
17333;DHT22;8784;50.94667800;7.08448400;2023-12-04T12:35:39;1.70;99.90
17333;DHT22;8784;50.94667800;7.08448400;2023-12-04T12:38:07;1.70;99.90
17333;DHT22;8784;50.94667800;7.08448400;2023-12-04T12:40:34;1.70;99.90
17333;DHT22;8784;50.94667800;7.08448400;2023-12-04T12:43:05;1.70;99.90
17333;DHT22;8784;50.94667800;7.08448400;2023-12-04T12:45:39;1.70;99.90
17333;DHT22;8784;50.94667800;7.08448400;2023-12-04T12:48:06;1.70;99.90
17333;DHT22;8784;50.94667800;7.08448400;2023-12-04T12:50:37;1.60;99.90
17333;DHT22;8784;50.94667800;7.08448400;2023-12-04T12:53:04;1.60;99.90
17333;DHT22;8784;50.94667800;7.08448400;2023-12-04T12:55:31;1.70;99.90
17333;DHT22;8784;50.94667800;7.08448400;2023-12-04T12:57:58;1.70;99.90
17333;DHT22;8784;50.94667800;7.08448400;2023-12-04T13:00:27;1.70;99.90
17333;DHT22;8784;50.94667800;7.08448400;2023-12-04T13:02:54;1.70;99.90
17333;DHT22;8784;50.94667800;7.08448400;2023-12-04T13:05:21;1.70;99.90
17333;DHT22;8784;50.94667800;7.08448400;2023-12-04T13:07:49;1.80;99.90
17333;DHT22;8784;50.94667800;7.08448400;2023-12-04T13:10:16;1.70;99.90
17333;DHT22;8784;50.94667800;7.08448400;2023-12-04T13:12:43;1.70;99.90
17333;DHT22;8784;50.94667800;7.08448400;2023-12-04T13:15:10;1.60;99.90
17333;DHT22;8784;50.94667800;7.08448400;2023-12-04T13:17:37;1.60;99.90
17333;DHT22;8784;50.94667800;7.08448400;2023-12-04T13:20:05;1.60;99.90
17333;DHT22;8784;50.94667800;7.08448400;2023-12-04T13:22:38;1.60;99.90
17333;DHT22;8784;50.94667800;7.08448400;2023-12-04T13:25:07;1.70;99.90
17333;DHT22;8784;50.94667800;7.08448400;2023-12-04T13:27:35;1.70;99.90
17333;DHT22;8784;50.94667800;7.08448400;2023-12-04T13:30:05;1.60;99.90
17333;DHT22;8784;50.94667800;7.08448400;2023-12-04T13:32:32;1.70;99.90
17333;DHT22;8784;50.94667800;7.08448400;2023-12-04T13:34:59;1.70;99.90
17333;DHT22;8784;50.94667800;7.08448400;2023-12-04T13:37:26;1.80;99.90
17333;DHT22;8784;50.94667800;7.08448400;2023-12-04T13:39:56;1.80;99.90
17333;DHT22;8784;50.94667800;7.08448400;2023-12-04T13:42:25;1.80;99.90
17333;DHT22;8784;50.94667800;7.08448400;2023-12-04T13:45:09;1.80;99.90
17333;DHT22;8784;50.94667800;7.08448400;2023-12-04T13:47:38;1.90;99.90
17333;DHT22;8784;50.94667800;7.08448400;2023-12-04T13:50:06;1.90;99.90
17333;DHT22;8784;50.94667800;7.08448400;2023-12-04T13:52:34;1.90;99.90